sensor_id;sensor_type;location;lat;lon;timestamp;pressure;altitude;pressure_sealevel;temperature;humidity
68807;BME280;55800;54.272;18.558;2022-11-04T00:00:19;100686.88;;;1.03;73.31
68807;BME280;55800;54.272;18.558;2022-11-04T00:02:59;100678.97;;;1.01;73.17
68807;BME280;55800;54.272;18.558;2022-11-04T00:05:28;100673.72;;;1.01;73.19
68807;BME280;55800;54.272;18.558;2022-11-04T00:07:59;100676.34;;;1.01;73.22
68807;BME280;55800;54.272;18.558;2022-11-04T00:10:45;100675.44;;;1.02;73.15
68807;BME280;55800;54.272;18.558;2022-11-04T00:13:32;100665.81;;;1.03;73.15
68807;BME280;55800;54.272;18.558;2022-11-04T00:16:01;100667.56;;;1.02;73.34
68807;BME280;55800;54.272;18.558;2022-11-04T00:18:48;100672.81;;;1.02;73.24
68807;BME280;55800;54.272;18.558;2022-11-04T00:21:17;100665.81;;;1.03;73.35
68807;BME280;55800;54.272;18.558;2022-11-04T00:24:07;100672.81;;;1.02;73.29
68807;BME280;55800;54.272;18.558;2022-11-04T00:26:53;100659.69;;;1.01;73.36
68807;BME280;55800;54.272;18.558;2022-11-04T00:29:40;100663.19;;;1.01;73.40
68807;BME280;55800;54.272;18.558;2022-11-04T00:32:09;100660.56;;;1.01;73.35
68807;BME280;55800;54.272;18.558;2022-11-04T00:34:56;100661.41;;;1.00;73.30
68807;BME280;55800;54.272;18.558;2022-11-04T00:37:26;100658.78;;;1.00;73.36
68807;BME280;55800;54.272;18.558;2022-11-04T00:39:56;100654.41;;;0.99;73.37
68807;BME280;55800;54.272;18.558;2022-11-04T00:42:25;100657.94;;;1.01;73.44
68807;BME280;55800;54.272;18.558;2022-11-04T00:44:54;100644.78;;;1.00;73.48
68807;BME280;55800;54.272;18.558;2022-11-04T00:47:24;100652.66;;;0.98;73.50
68807;BME280;55800;54.272;18.558;2022-11-04T00:49:53;100647.38;;;0.98;73.51
68807;BME280;55800;54.272;18.558;2022-11-04T00:52:22;100641.25;;;0.98;73.44
68807;BME280;55800;54.272;18.558;2022-11-04T00:54:51;100642.13;;;0.98;73.44
68807;BME280;55800;54.272;18.558;2022-11-04T00:57:22;100636.00;;;0.99;73.70
68807;BME280;55800;54.272;18.558;2022-11-04T00:59:51;100629.84;;;1.00;73.56
68807;BME280;55800;54.272;18.558;2022-11-04T01:02:20;100625.44;;;1.01;73.55
68807;BME280;55800;54.272;18.558;2022-11-04T01:04:50;100614.03;;;1.03;73.79
68807;BME280;55800;54.272;18.558;2022-11-04T01:07:19;100610.50;;;1.04;73.73
68807;BME280;55800;54.272;18.558;2022-11-04T01:09:49;100608.75;;;1.06;73.73
68807;BME280;55800;54.272;18.558;2022-11-04T01:12:18;100607.88;;;1.07;73.75
68807;BME280;55800;54.272;18.558;2022-11-04T01:14:49;100604.38;;;1.10;73.93
68807;BME280;55800;54.272;18.558;2022-11-04T01:17:18;100594.72;;;1.10;73.93
68807;BME280;55800;54.272;18.558;2022-11-04T01:19:47;100589.41;;;1.13;73.95
68807;BME280;55800;54.272;18.558;2022-11-04T01:22:16;100592.94;;;1.15;74.18
68807;BME280;55800;54.272;18.558;2022-11-04T01:24:45;100585.88;;;1.17;74.14
68807;BME280;55800;54.272;18.558;2022-11-04T01:27:14;100592.03;;;1.19;74.10
68807;BME280;55800;54.272;18.558;2022-11-04T01:29:44;100588.50;;;1.22;74.09
68807;BME280;55800;54.272;18.558;2022-11-04T01:32:14;100585.00;;;1.24;74.27
68807;BME280;55800;54.272;18.558;2022-11-04T01:34:45;100570.94;;;1.27;74.18
68807;BME280;55800;54.272;18.558;2022-11-04T01:37:14;100568.28;;;1.28;74.23
68807;BME280;55800;54.272;18.558;2022-11-04T01:39:44;100569.16;;;1.30;74.12
68807;BME280;55800;54.272;18.558;2022-11-04T01:42:14;100570.03;;;1.32;74.13
68807;BME280;55800;54.272;18.558;2022-11-04T01:45:01;100570.03;;;1.35;74.34
68807;BME280;55800;54.272;18.558;2022-11-04T01:47:36;100565.63;;;1.37;74.19
68807;BME280;55800;54.272;18.558;2022-11-04T01:50:09;100556.81;;;1.40;74.33
68807;BME280;55800;54.272;18.558;2022-11-04T01:52:44;100548.03;;;1.41;74.20
68807;BME280;55800;54.272;18.558;2022-11-04T01:55:18;100551.53;;;1.43;74.28
68807;BME280;55800;54.272;18.558;2022-11-04T01:57:49;100542.75;;;1.44;74.29
68807;BME280;55800;54.272;18.558;2022-11-04T02:00:19;100546.25;;;1.46;74.37
68807;BME280;55800;54.272;18.558;2022-11-04T02:02:55;100539.22;;;1.48;74.27
68807;BME280;55800;54.272;18.558;2022-11-04T02:05:27;100530.41;;;1.49;74.41
68807;BME280;55800;54.272;18.558;2022-11-04T02:07:58;100524.25;;;1.51;74.29
68807;BME280;55800;54.272;18.558;2022-11-04T02:10:30;100516.31;;;1.53;74.39
68807;BME280;55800;54.272;18.558;2022-11-04T02:13:01;100506.66;;;1.53;74.47
68807;BME280;55800;54.272;18.558;2022-11-04T02:15:36;100506.66;;;1.56;74.40
68807;BME280;55800;54.272;18.558;2022-11-04T02:18:24;100500.50;;;1.59;74.47
68807;BME280;55800;54.272;18.558;2022-11-04T02:21:21;100496.09;;;1.61;74.39
68807;BME280;55800;54.272;18.558;2022-11-04T02:30:06;100482.81;;;1.72;74.70
68807;BME280;55800;54.272;18.558;2022-11-04T02:32:52;100482.75;;;1.76;74.62
68807;BME280;55800;54.272;18.558;2022-11-04T02:35:33;100476.59;;;1.80;74.92
68807;BME280;55800;54.272;18.558;2022-11-04T02:38:13;100480.06;;;1.85;75.01
68807;BME280;55800;54.272;18.558;2022-11-04T02:40:51;100480.91;;;1.89;75.10
68807;BME280;55800;54.272;18.558;2022-11-04T02:43:26;100471.19;;;1.94;74.99
68807;BME280;55800;54.272;18.558;2022-11-04T02:46:04;100461.47;;;1.99;75.22
68807;BME280;55800;54.272;18.558;2022-11-04T02:48:39;100472.00;;;2.03;75.26
68807;BME280;55800;54.272;18.558;2022-11-04T02:51:16;100464.00;;;2.08;75.04
68807;BME280;55800;54.272;18.558;2022-11-04T02:53:53;100470.13;;;2.13;75.32
68807;BME280;55800;54.272;18.558;2022-11-04T02:56:26;100464.81;;;2.17;75.44
68807;BME280;55800;54.272;18.558;2022-11-04T02:58:59;100459.47;;;2.22;75.25
68807;BME280;55800;54.272;18.558;2022-11-04T03:01:35;100449.75;;;2.27;75.37
68807;BME280;55800;54.272;18.558;2022-11-04T03:04:12;100448.81;;;2.32;75.42
68807;BME280;55800;54.272;18.558;2022-11-04T03:06:43;100450.53;;;2.36;75.49
68807;BME280;55800;54.272;18.558;2022-11-04T03:09:16;100446.09;;;2.42;75.43
68807;BME280;55800;54.272;18.558;2022-11-04T03:11:51;100447.78;;;2.46;75.53
68807;BME280;55800;54.272;18.558;2022-11-04T03:14:25;100452.13;;;2.50;75.61
68807;BME280;55800;54.272;18.558;2022-11-04T03:17:00;100440.66;;;2.54;75.59
68807;BME280;55800;54.272;18.558;2022-11-04T03:19:38;100441.47;;;2.59;75.61
68807;BME280;55800;54.272;18.558;2022-11-04T03:22:11;100446.72;;;2.60;75.59
68807;BME280;55800;54.272;18.558;2022-11-04T03:24:42;100439.59;;;2.65;75.65
68807;BME280;55800;54.272;18.558;2022-11-04T03:27:19;100430.78;;;2.69;75.75
68807;BME280;55800;54.272;18.558;2022-11-04T03:29:58;100430.72;;;2.72;75.77
68807;BME280;55800;54.272;18.558;2022-11-04T03:33:41;100421.88;;;2.78;75.72
68807;BME280;55800;54.272;18.558;2022-11-04T03:36:14;100412.16;;;2.80;75.82
68807;BME280;55800;54.272;18.558;2022-11-04T03:38:45;100418.25;;;2.83;75.67
68807;BME280;55800;54.272;18.558;2022-11-04T03:41:18;100417.31;;;2.87;75.73
68807;BME280;55800;54.272;18.558;2022-11-04T03:43:50;100411.13;;;2.90;75.79
68807;BME280;55800;54.272;18.558;2022-11-04T03:46:21;100397.88;;;2.93;75.73
68807;BME280;55800;54.272;18.558;2022-11-04T03:48:54;100409.28;;;2.96;75.75
68807;BME280;55800;54.272;18.558;2022-11-04T03:51:24;100400.44;;;2.99;75.89
68807;BME280;55800;54.272;18.558;2022-11-04T03:53:54;100401.25;;;3.02;75.80
68807;BME280;55800;54.272;18.558;2022-11-04T03:56:28;100395.06;;;3.05;75.70
68807;BME280;55800;54.272;18.558;2022-11-04T03:59:09;100402.06;;;3.07;75.82
68807;BME280;55800;54.272;18.558;2022-11-04T04:01:47;100391.44;;;3.10;75.85
68807;BME280;55800;54.272;18.558;2022-11-04T04:04:25;100390.53;;;3.13;75.79
68807;BME280;55800;54.272;18.558;2022-11-04T04:07:00;100393.09;;;3.16;75.77
68807;BME280;55800;54.272;18.558;2022-11-04T04:09:36;100391.34;;;3.18;75.93
68807;BME280;55800;54.272;18.558;2022-11-04T04:12:12;100389.50;;;3.22;75.83
68807;BME280;55800;54.272;18.558;2022-11-04T04:14:45;100385.09;;;3.24;75.94
68807;BME280;55800;54.272;18.558;2022-11-04T04:17:21;100384.16;;;3.26;75.85
68807;BME280;55800;54.272;18.558;2022-11-04T04:19:56;100376.16;;;3.29;75.89
68807;BME280;55800;54.272;18.558;2022-11-04T04:22:28;100385.78;;;3.33;75.94
68807;BME280;55800;54.272;18.558;2022-11-04T04:25:02;100384.88;;;3.36;75.98
68807;BME280;55800;54.272;18.558;2022-11-04T04:27:53;100379.56;;;3.39;76.08
68807;BME280;55800;54.272;18.558;2022-11-04T04:30:25;100376.84;;;3.42;76.09
68807;BME280;55800;54.272;18.558;2022-11-04T04:32:57;100376.81;;;3.45;76.01
68807;BME280;55800;54.272;18.558;2022-11-04T04:35:32;100381.16;;;3.47;76.20
68807;BME280;55800;54.272;18.558;2022-11-04T04:38:17;100380.22;;;3.51;76.08
68807;BME280;55800;54.272;18.558;2022-11-04T04:41:10;100378.38;;;3.55;76.28
68807;BME280;55800;54.272;18.558;2022-11-04T04:43:59;100382.72;;;3.59;76.27
68807;BME280;55800;54.272;18.558;2022-11-04T04:46:48;100384.41;;;3.63;76.27
68807;BME280;55800;54.272;18.558;2022-11-04T04:49:18;100372.03;;;3.65;76.61
68807;BME280;55800;54.272;18.558;2022-11-04T04:51:48;100374.59;;;3.69;76.33
68807;BME280;55800;54.272;18.558;2022-11-04T04:54:18;100381.59;;;3.72;76.42
68807;BME280;55800;54.272;18.558;2022-11-04T04:56:47;100380.66;;;3.76;76.27
68807;BME280;55800;54.272;18.558;2022-11-04T04:59:16;100378.84;;;3.78;76.54
68807;BME280;55800;54.272;18.558;2022-11-04T05:01:45;100378.81;;;3.81;76.49
68807;BME280;55800;54.272;18.558;2022-11-04T05:04:15;100381.38;;;3.84;76.31
68807;BME280;55800;54.272;18.558;2022-11-04T05:06:44;100369.88;;;3.86;76.47
68807;BME280;55800;54.272;18.558;2022-11-04T05:09:15;100378.63;;;3.90;76.53
68807;BME280;55800;54.272;18.558;2022-11-04T05:11:44;100368.91;;;3.92;76.33
68807;BME280;55800;54.272;18.558;2022-11-04T05:14:13;100379.41;;;3.95;76.46
68807;BME280;55800;54.272;18.558;2022-11-04T05:16:42;100366.13;;;3.98;76.54
68807;BME280;55800;54.272;18.558;2022-11-04T05:19:11;100372.25;;;4.00;76.43
68807;BME280;55800;54.272;18.558;2022-11-04T05:21:40;100366.91;;;4.03;76.58
68807;BME280;55800;54.272;18.558;2022-11-04T05:24:09;100360.72;;;4.04;76.49
68807;BME280;55800;54.272;18.558;2022-11-04T05:26:40;100365.03;;;4.08;76.50
68807;BME280;55800;54.272;18.558;2022-11-04T05:29:09;100356.22;;;4.09;76.44
68807;BME280;55800;54.272;18.558;2022-11-04T05:31:39;100359.72;;;4.11;76.50
68807;BME280;55800;54.272;18.558;2022-11-04T05:34:10;100357.91;;;4.13;76.47
68807;BME280;55800;54.272;18.558;2022-11-04T05:36:39;100364.03;;;4.15;76.42
68807;BME280;55800;54.272;18.558;2022-11-04T05:39:11;100364.88;;;4.17;76.57
68807;BME280;55800;54.272;18.558;2022-11-04T05:41:42;100358.66;;;4.18;76.55
68807;BME280;55800;54.272;18.558;2022-11-04T05:44:11;100355.13;;;4.19;76.45
68807;BME280;55800;54.272;18.558;2022-11-04T05:46:42;100348.91;;;4.20;76.42
68807;BME280;55800;54.272;18.558;2022-11-04T05:49:12;100347.09;;;4.22;76.48
68807;BME280;55800;54.272;18.558;2022-11-04T05:51:41;100340.94;;;4.23;76.41
68807;BME280;55800;54.272;18.558;2022-11-04T05:54:10;100343.53;;;4.25;76.48
68807;BME280;55800;54.272;18.558;2022-11-04T05:56:39;100344.41;;;4.25;76.28
68807;BME280;55800;54.272;18.558;2022-11-04T05:59:10;100347.91;;;4.27;76.52
68807;BME280;55800;54.272;18.558;2022-11-04T06:01:40;100352.31;;;4.28;76.34
68807;BME280;55800;54.272;18.558;2022-11-04T06:04:14;100345.22;;;4.29;76.26
68807;BME280;55800;54.272;18.558;2022-11-04T06:06:44;100340.81;;;4.29;76.47
68807;BME280;55800;54.272;18.558;2022-11-04T06:09:13;100344.31;;;4.30;76.30
68807;BME280;55800;54.272;18.558;2022-11-04T06:11:43;100339.91;;;4.30;76.30
68807;BME280;55800;54.272;18.558;2022-11-04T06:14:13;100344.28;;;4.31;76.35
68807;BME280;55800;54.272;18.558;2022-11-04T06:16:45;100333.69;;;4.31;76.45
68807;BME280;55800;54.272;18.558;2022-11-04T06:19:14;100339.81;;;4.33;76.24
68807;BME280;55800;54.272;18.558;2022-11-04T06:21:44;100343.41;;;4.32;76.41
68807;BME280;55800;54.272;18.558;2022-11-04T06:24:13;100337.19;;;4.33;76.30
68807;BME280;55800;54.272;18.558;2022-11-04T06:26:42;100342.47;;;4.33;76.34
68807;BME280;55800;54.272;18.558;2022-11-04T06:29:13;100331.84;;;4.35;76.34
68807;BME280;55800;54.272;18.558;2022-11-04T06:31:43;100336.25;;;4.36;76.34
68807;BME280;55800;54.272;18.558;2022-11-04T06:34:12;100331.84;;;4.36;76.31
68807;BME280;55800;54.272;18.558;2022-11-04T06:36:41;100330.91;;;4.37;76.21
68807;BME280;55800;54.272;18.558;2022-11-04T06:39:10;100333.56;;;4.37;76.27
68807;BME280;55800;54.272;18.558;2022-11-04T06:41:40;100340.56;;;4.40;76.26
68807;BME280;55800;54.272;18.558;2022-11-04T06:44:10;100336.19;;;4.39;76.36
68807;BME280;55800;54.272;18.558;2022-11-04T06:46:42;100338.81;;;4.40;76.33
68807;BME280;55800;54.272;18.558;2022-11-04T06:49:13;100344.97;;;4.41;76.40
68807;BME280;55800;54.272;18.558;2022-11-04T06:51:43;100345.81;;;4.41;76.38
68807;BME280;55800;54.272;18.558;2022-11-04T06:54:13;100343.16;;;4.43;76.32
68807;BME280;55800;54.272;18.558;2022-11-04T06:56:43;100345.78;;;4.44;76.34
68807;BME280;55800;54.272;18.558;2022-11-04T06:59:16;100346.66;;;4.45;76.39
68807;BME280;55800;54.272;18.558;2022-11-04T07:01:48;100337.78;;;4.46;76.47
68807;BME280;55800;54.272;18.558;2022-11-04T07:04:17;100348.38;;;4.47;76.40
68807;BME280;55800;54.272;18.558;2022-11-04T07:06:47;100342.09;;;4.50;76.44
68807;BME280;55800;54.272;18.558;2022-11-04T07:09:16;100348.28;;;4.50;76.41
68807;BME280;55800;54.272;18.558;2022-11-04T07:11:46;100343.81;;;4.52;76.42
68807;BME280;55800;54.272;18.558;2022-11-04T07:14:15;100334.06;;;4.54;76.53
68807;BME280;55800;54.272;18.558;2022-11-04T07:16:47;100332.25;;;4.58;76.56
68807;BME280;55800;54.272;18.558;2022-11-04T07:19:16;100333.97;;;4.59;76.49
68807;BME280;55800;54.272;18.558;2022-11-04T07:21:46;100338.34;;;4.61;76.57
68807;BME280;55800;54.272;18.558;2022-11-04T07:24:15;100332.09;;;4.64;76.59
68807;BME280;55800;54.272;18.558;2022-11-04T07:26:45;100329.38;;;4.67;76.63
68807;BME280;55800;54.272;18.558;2022-11-04T07:29:14;100329.38;;;4.68;76.57
68807;BME280;55800;54.272;18.558;2022-11-04T07:31:43;100328.41;;;4.71;76.69
68807;BME280;55800;54.272;18.558;2022-11-04T07:34:14;100327.47;;;4.73;76.77
68807;BME280;55800;54.272;18.558;2022-11-04T07:36:43;100330.06;;;4.77;76.65
68807;BME280;55800;54.272;18.558;2022-11-04T07:39:12;100330.88;;;4.79;76.63
68807;BME280;55800;54.272;18.558;2022-11-04T07:41:41;100330.78;;;4.82;76.78
68807;BME280;55800;54.272;18.558;2022-11-04T07:44:11;100336.91;;;4.85;76.89
68807;BME280;55800;54.272;18.558;2022-11-04T07:46:40;100327.16;;;4.87;76.88
68807;BME280;55800;54.272;18.558;2022-11-04T07:49:09;100332.34;;;4.92;76.85
68807;BME280;55800;54.272;18.558;2022-11-04T07:51:41;100333.19;;;4.94;76.97
68807;BME280;55800;54.272;18.558;2022-11-04T07:54:10;100335.75;;;4.97;77.00
68807;BME280;55800;54.272;18.558;2022-11-04T07:56:39;100324.16;;;5.01;77.03
68807;BME280;55800;54.272;18.558;2022-11-04T07:59:08;100332.94;;;5.03;77.05
68807;BME280;55800;54.272;18.558;2022-11-04T08:01:38;100326.69;;;5.05;77.02
68807;BME280;55800;54.272;18.558;2022-11-04T08:04:07;100335.47;;;5.09;77.03
68807;BME280;55800;54.272;18.558;2022-11-04T08:06:39;100319.47;;;5.12;77.24
68807;BME280;55800;54.272;18.558;2022-11-04T08:09:09;100330.00;;;5.15;77.13
68807;BME280;55800;54.272;18.558;2022-11-04T08:11:38;100327.25;;;5.19;77.28
68807;BME280;55800;54.272;18.558;2022-11-04T08:14:08;100328.03;;;5.23;77.22
68807;BME280;55800;54.272;18.558;2022-11-04T08:16:38;100335.88;;;5.27;77.36
68807;BME280;55800;54.272;18.558;2022-11-04T08:19:07;100334.94;;;5.30;77.16
68807;BME280;55800;54.272;18.558;2022-11-04T08:21:36;100324.25;;;5.33;77.35
68807;BME280;55800;54.272;18.558;2022-11-04T08:24:07;100320.59;;;5.37;77.26
68807;BME280;55800;54.272;18.558;2022-11-04T08:26:37;100328.44;;;5.41;77.44
68807;BME280;55800;54.272;18.558;2022-11-04T08:29:06;100323.91;;;5.45;77.35
68807;BME280;55800;54.272;18.558;2022-11-04T08:31:36;100314.13;;;5.48;77.25
68807;BME280;55800;54.272;18.558;2022-11-04T08:34:06;100321.09;;;5.52;77.50
68807;BME280;55800;54.272;18.558;2022-11-04T08:36:37;100316.53;;;5.58;77.55
68807;BME280;55800;54.272;18.558;2022-11-04T08:39:09;100314.56;;;5.64;77.71
68807;BME280;55800;54.272;18.558;2022-11-04T08:41:41;100306.50;;;5.69;77.71
68807;BME280;55800;54.272;18.558;2022-11-04T08:44:12;100302.84;;;5.74;77.62
68807;BME280;55800;54.272;18.558;2022-11-04T08:46:44;100299.19;;;5.78;77.75
68807;BME280;55800;54.272;18.558;2022-11-04T08:49:13;100298.19;;;5.82;77.73
68807;BME280;55800;54.272;18.558;2022-11-04T08:51:48;100302.44;;;5.89;77.88
68807;BME280;55800;54.272;18.558;2022-11-04T08:54:25;100293.44;;;5.95;77.80
68807;BME280;55800;54.272;18.558;2022-11-04T08:56:55;100295.97;;;5.99;77.89
68807;BME280;55800;54.272;18.558;2022-11-04T08:59:24;100295.78;;;6.05;77.98
68807;BME280;55800;54.272;18.558;2022-11-04T09:01:53;100300.00;;;6.12;77.89
68807;BME280;55800;54.272;18.558;2022-11-04T09:04:23;100307.78;;;6.18;78.13
68807;BME280;55800;54.272;18.558;2022-11-04T09:06:52;100295.16;;;6.26;78.18
68807;BME280;55800;54.272;18.558;2022-11-04T09:09:24;100298.44;;;6.35;78.19
68807;BME280;55800;54.272;18.558;2022-11-04T09:11:53;100294.69;;;6.42;78.42
68807;BME280;55800;54.272;18.558;2022-11-04T09:14:22;100287.38;;;6.50;78.45
68807;BME280;55800;54.272;18.558;2022-11-04T09:16:52;100296.84;;;6.58;78.58
68807;BME280;55800;54.272;18.558;2022-11-04T09:19:21;100304.47;;;6.69;78.76
68807;BME280;55800;54.272;18.558;2022-11-04T09:21:52;100301.53;;;6.78;78.85
68807;BME280;55800;54.272;18.558;2022-11-04T09:24:21;100301.19;;;6.88;79.12
68807;BME280;55800;54.272;18.558;2022-11-04T09:26:51;100297.25;;;7.00;79.16
68807;BME280;55800;54.272;18.558;2022-11-04T09:29:21;100301.38;;;7.10;79.36
68807;BME280;55800;54.272;18.558;2022-11-04T09:31:50;100290.41;;;7.21;79.41
68807;BME280;55800;54.272;18.558;2022-11-04T09:34:19;100295.34;;;7.31;79.55
68807;BME280;55800;54.272;18.558;2022-11-04T09:36:48;100296.78;;;7.41;79.71
68807;BME280;55800;54.272;18.558;2022-11-04T09:39:18;100294.63;;;7.52;79.74
68807;BME280;55800;54.272;18.558;2022-11-04T09:42:00;100291.53;;;7.64;79.79
68807;BME280;55800;54.272;18.558;2022-11-04T09:44:42;100292.03;;;7.75;80.07
68807;BME280;55800;54.272;18.558;2022-11-04T09:47:35;100288.91;;;7.87;79.99
68807;BME280;55800;54.272;18.558;2022-11-04T09:50:09;100282.31;;;7.98;80.06
68807;BME280;55800;54.272;18.558;2022-11-04T09:52:43;100280.13;;;8.09;80.13
68807;BME280;55800;54.272;18.558;2022-11-04T09:55:19;100286.84;;;8.19;80.24
68807;BME280;55800;54.272;18.558;2022-11-04T09:57:54;100267.84;;;8.29;79.99
68807;BME280;55800;54.272;18.558;2022-11-04T10:00:25;100279.03;;;8.39;80.32
68807;BME280;55800;54.272;18.558;2022-11-04T10:03:05;100279.53;;;8.48;80.31
68807;BME280;55800;54.272;18.558;2022-11-04T10:05:50;100271.25;;;8.56;80.45
68807;BME280;55800;54.272;18.558;2022-11-04T10:08:47;100273.50;;;8.67;80.28
68807;BME280;55800;54.272;18.558;2022-11-04T10:11:25;100266.94;;;8.75;80.46
68807;BME280;55800;54.272;18.558;2022-11-04T10:14:14;100273.75;;;8.82;80.25
68807;BME280;55800;54.272;18.558;2022-11-04T10:16:58;100273.44;;;8.90;80.26
68807;BME280;55800;54.272;18.558;2022-11-04T10:19:41;100268.66;;;8.98;80.30
68807;BME280;55800;54.272;18.558;2022-11-04T10:22:19;100262.16;;;9.05;80.25
68807;BME280;55800;54.272;18.558;2022-11-04T10:25:00;100271.56;;;9.13;80.27
68807;BME280;55800;54.272;18.558;2022-11-04T10:27:35;100278.38;;;9.20;80.36
68807;BME280;55800;54.272;18.558;2022-11-04T10:30:15;100276.19;;;9.30;80.41
68807;BME280;55800;54.272;18.558;2022-11-04T10:32:55;100277.59;;;9.38;80.36
68807;BME280;55800;54.272;18.558;2022-11-04T10:35:31;100261.25;;;9.46;80.39
68807;BME280;55800;54.272;18.558;2022-11-04T10:38:16;100265.34;;;9.55;80.36
68807;BME280;55800;54.272;18.558;2022-11-04T10:40:50;100254.38;;;9.61;80.39
68807;BME280;55800;54.272;18.558;2022-11-04T10:43:31;100263.88;;;9.68;80.29
68807;BME280;55800;54.272;18.558;2022-11-04T10:46:17;100268.03;;;9.75;80.27
68807;BME280;55800;54.272;18.558;2022-11-04T10:48:53;100264.28;;;9.79;80.28
68807;BME280;55800;54.272;18.558;2022-11-04T10:51:25;100259.66;;;9.82;80.28
68807;BME280;55800;54.272;18.558;2022-11-04T10:53:56;100264.78;;;9.87;80.21
68807;BME280;55800;54.272;18.558;2022-11-04T10:56:32;100263.81;;;9.89;80.18
68807;BME280;55800;54.272;18.558;2022-11-04T10:59:18;100257.47;;;9.92;80.17
68807;BME280;55800;54.272;18.558;2022-11-04T11:01:53;100261.81;;;9.94;80.10
68807;BME280;55800;54.272;18.558;2022-11-04T11:04:28;100268.78;;;9.97;79.98
68807;BME280;55800;54.272;18.558;2022-11-04T11:06:59;100249.97;;;10.00;80.00
68807;BME280;55800;54.272;18.558;2022-11-04T11:09:30;100253.34;;;10.03;80.00
68807;BME280;55800;54.272;18.558;2022-11-04T11:12:03;100253.16;;;10.08;80.02
68807;BME280;55800;54.272;18.558;2022-11-04T11:14:53;100252.06;;;10.13;80.04
68807;BME280;55800;54.272;18.558;2022-11-04T11:17:34;100241.13;;;10.18;80.02
68807;BME280;55800;54.272;18.558;2022-11-04T11:20:18;100244.38;;;10.25;80.14
68807;BME280;55800;54.272;18.558;2022-11-04T11:22:49;100246.84;;;10.29;80.09
68807;BME280;55800;54.272;18.558;2022-11-04T11:25:24;100227.84;;;10.35;80.15
68807;BME280;55800;54.272;18.558;2022-11-04T11:27:56;100232.06;;;10.41;80.10
68807;BME280;55800;54.272;18.558;2022-11-04T11:30:29;100229.97;;;10.47;80.08
68807;BME280;55800;54.272;18.558;2022-11-04T11:33:03;100222.56;;;10.52;80.00
68807;BME280;55800;54.272;18.558;2022-11-04T11:35:38;100211.75;;;10.55;79.96
68807;BME280;55800;54.272;18.558;2022-11-04T11:38:17;100211.53;;;10.60;80.07
68807;BME280;55800;54.272;18.558;2022-11-04T11:40:47;100206.03;;;10.63;80.00
68807;BME280;55800;54.272;18.558;2022-11-04T11:43:42;100209.44;;;10.66;79.96
68807;BME280;55800;54.272;18.558;2022-11-04T11:46:13;100211.94;;;10.69;79.84
68807;BME280;55800;54.272;18.558;2022-11-04T11:48:52;100204.72;;;10.71;79.80
68807;BME280;55800;54.272;18.558;2022-11-04T11:51:30;100202.81;;;10.73;79.83
68807;BME280;55800;54.272;18.558;2022-11-04T11:54:19;100200.94;;;10.75;79.68
68807;BME280;55800;54.272;18.558;2022-11-04T11:56:53;100201.72;;;10.77;79.62
68807;BME280;55800;54.272;18.558;2022-11-04T11:59:45;100199.84;;;10.79;79.77
68807;BME280;55800;54.272;18.558;2022-11-04T12:02:44;100202.38;;;10.82;79.61
68807;BME280;55800;54.272;18.558;2022-11-04T12:05:17;100201.38;;;10.85;79.70
68807;BME280;55800;54.272;18.558;2022-11-04T12:08:32;100200.28;;;10.89;79.71
68807;BME280;55800;54.272;18.558;2022-11-04T12:11:29;100209.00;;;10.92;79.63
68807;BME280;55800;54.272;18.558;2022-11-04T12:14:04;100206.09;;;10.97;79.57
68807;BME280;55800;54.272;18.558;2022-11-04T12:16:41;100219.25;;;11.02;79.55
68807;BME280;55800;54.272;18.558;2022-11-04T12:19:24;100219.94;;;11.05;79.59
68807;BME280;55800;54.272;18.558;2022-11-04T12:22:01;100218.00;;;11.09;79.50
68807;BME280;55800;54.272;18.558;2022-11-04T12:24:40;100218.78;;;11.11;79.45
68807;BME280;55800;54.272;18.558;2022-11-04T12:27:19;100221.28;;;11.14;79.57
68807;BME280;55800;54.272;18.558;2022-11-04T12:30:02;100215.91;;;11.15;79.43
68807;BME280;55800;54.272;18.558;2022-11-04T12:32:59;100218.47;;;11.17;79.45
68807;BME280;55800;54.272;18.558;2022-11-04T12:35:42;100222.81;;;11.19;79.40
68807;BME280;55800;54.272;18.558;2022-11-04T12:38:25;100220.97;;;11.20;79.30
68807;BME280;55800;54.272;18.558;2022-11-04T12:41:05;100212.94;;;11.20;79.27
68807;BME280;55800;54.272;18.558;2022-11-04T12:44:05;100223.66;;;11.20;79.27
68807;BME280;55800;54.272;18.558;2022-11-04T12:46:44;100219.19;;;11.20;79.20
68807;BME280;55800;54.272;18.558;2022-11-04T12:49:35;100218.25;;;11.21;79.27
68807;BME280;55800;54.272;18.558;2022-11-04T12:52:18;100226.28;;;11.21;79.15
68807;BME280;55800;54.272;18.558;2022-11-04T12:55:03;100218.16;;;11.23;79.19
68807;BME280;55800;54.272;18.558;2022-11-04T12:57:42;100211.88;;;11.24;79.17
68807;BME280;55800;54.272;18.558;2022-11-04T13:00:14;100208.25;;;11.25;79.07
68807;BME280;55800;54.272;18.558;2022-11-04T13:02:48;100199.19;;;11.27;79.11
68807;BME280;55800;54.272;18.558;2022-11-04T13:05:30;100207.94;;;11.31;79.20
68807;BME280;55800;54.272;18.558;2022-11-04T13:08:09;100204.16;;;11.35;79.27
68807;BME280;55800;54.272;18.558;2022-11-04T13:10:50;100204.78;;;11.40;79.38
68807;BME280;55800;54.272;18.558;2022-11-04T13:13:24;100202.75;;;11.45;79.22
68807;BME280;55800;54.272;18.558;2022-11-04T13:15:57;100203.34;;;11.50;79.29
68807;BME280;55800;54.272;18.558;2022-11-04T13:18:30;100217.38;;;11.55;79.22
68807;BME280;55800;54.272;18.558;2022-11-04T13:21:03;100214.53;;;11.58;79.27
68807;BME280;55800;54.272;18.558;2022-11-04T13:23:37;100225.09;;;11.61;79.31
68807;BME280;55800;54.272;18.558;2022-11-04T13:26:13;100225.78;;;11.64;79.27
68807;BME280;55800;54.272;18.558;2022-11-04T13:28:44;100218.63;;;11.65;79.29
68807;BME280;55800;54.272;18.558;2022-11-04T13:31:25;100230.16;;;11.67;79.20